createdAt,value
2018-02-19T00:01:29.098Z,2.40
2018-02-19T00:03:57.406Z,2.40
2018-02-19T00:06:25.691Z,2.40
2018-02-19T00:08:54.906Z,2.50
2018-02-19T00:11:24.095Z,2.60
2018-02-19T00:13:52.507Z,2.60
2018-02-19T00:16:20.834Z,2.60
2018-02-19T00:18:49.301Z,2.50
2018-02-19T00:21:17.663Z,2.50
2018-02-19T00:23:46.014Z,2.50
2018-02-19T00:26:14.630Z,2.50
2018-02-19T00:28:42.926Z,2.50
2018-02-19T00:31:11.210Z,2.40
2018-02-19T00:33:40.502Z,2.40
2018-02-19T00:36:09.582Z,2.50
2018-02-19T00:38:38.082Z,2.50
2018-02-19T00:41:06.562Z,2.40
2018-02-19T00:43:35.031Z,2.40
2018-02-19T00:46:03.810Z,2.40
2018-02-19T00:48:33.065Z,2.40
2018-02-19T00:51:02.877Z,2.50
2018-02-19T00:53:31.574Z,2.50
2018-02-19T00:56:01.267Z,2.70
2018-02-19T00:58:31.289Z,2.70
2018-02-19T01:01:00.810Z,2.60
2018-02-19T01:03:29.403Z,2.60
2018-02-19T01:05:57.898Z,2.60
2018-02-19T01:08:26.304Z,2.60
2018-02-19T01:10:54.618Z,2.60
2018-02-19T01:13:22.946Z,2.50
2018-02-19T01:15:52.450Z,2.30
2018-02-19T01:18:21.345Z,2.30
2018-02-19T01:20:50.006Z,2.30
2018-02-19T01:23:19.070Z,2.10
2018-02-19T01:25:48.515Z,2.10
2018-02-19T01:28:16.800Z,2.00
2018-02-19T01:30:45.093Z,2.00
2018-02-19T01:33:13.429Z,2.00
2018-02-19T01:35:41.822Z,2.10
2018-02-19T01:38:10.111Z,2.10
2018-02-19T01:40:38.730Z,2.10
2018-02-19T01:43:07.155Z,2.10
2018-02-19T01:45:35.635Z,2.00
2018-02-19T01:48:04.150Z,2.00
2018-02-19T01:50:32.639Z,2.00
2018-02-19T01:53:01.755Z,2.10
2018-02-19T01:55:30.598Z,2.10
2018-02-19T01:57:59.244Z,2.20
2018-02-19T02:00:27.849Z,2.20
2018-02-19T02:02:56.893Z,2.30
2018-02-19T02:05:25.231Z,2.30
2018-02-19T02:07:53.634Z,2.40
2018-02-19T02:10:23.155Z,2.30
2018-02-19T02:12:52.341Z,2.30
2018-02-19T02:15:20.794Z,2.30
2018-02-19T02:17:50.014Z,2.50
2018-02-19T02:20:18.460Z,2.40
2018-02-19T02:22:47.546Z,2.30
2018-02-19T02:25:15.862Z,2.30
2018-02-19T02:27:44.243Z,2.30
2018-02-19T02:30:12.572Z,2.40
2018-02-19T02:32:40.895Z,2.30
2018-02-19T02:35:09.952Z,2.20
2018-02-19T02:37:38.235Z,2.20
2018-02-19T02:40:06.651Z,2.20
2018-02-19T02:42:35.989Z,2.30
2018-02-19T02:45:04.498Z,2.30
2018-02-19T02:47:33.027Z,2.30
2018-02-19T02:50:01.470Z,2.20
2018-02-19T02:52:30.193Z,2.30
2018-02-19T02:54:58.757Z,2.30
2018-02-19T02:57:28.883Z,2.40
2018-02-19T02:59:57.291Z,2.40
2018-02-19T03:02:25.667Z,2.20
2018-02-19T03:04:53.975Z,2.40
2018-02-19T03:07:22.427Z,2.40
2018-02-19T03:09:51.815Z,2.30
2018-02-19T03:12:20.180Z,2.30
2018-02-19T03:14:48.515Z,2.30
2018-02-19T03:17:16.802Z,2.20
2018-02-19T03:19:46.990Z,2.30
2018-02-19T03:22:15.303Z,2.20
2018-02-19T03:24:45.146Z,2.10
2018-02-19T03:27:14.215Z,2.10
2018-02-19T03:29:42.500Z,2.10
2018-02-19T03:32:10.822Z,2.20
2018-02-19T03:34:39.273Z,2.20
2018-02-19T03:37:07.722Z,2.20
2018-02-19T03:39:36.455Z,2.10
2018-02-19T03:42:04.962Z,2.10
2018-02-19T03:44:33.943Z,2.00
2018-02-19T03:47:02.796Z,2.10
2018-02-19T03:49:31.150Z,2.10
2018-02-19T03:52:00.388Z,2.00
2018-02-19T03:54:29.161Z,2.00
2018-02-19T03:56:57.522Z,2.00
2018-02-19T03:59:25.847Z,2.10
2018-02-19T04:01:54.230Z,2.10
2018-02-19T04:04:22.654Z,2.00
2018-02-19T04:06:51.279Z,2.10
2018-02-19T04:09:19.587Z,2.10
2018-02-19T04:11:47.907Z,2.10
2018-02-19T04:14:16.960Z,2.10
2018-02-19T04:16:45.282Z,2.10
2018-02-19T04:19:13.603Z,2.10
2018-02-19T04:21:41.887Z,2.10
2018-02-19T04:24:10.180Z,2.00
2018-02-19T04:26:38.563Z,2.10
2018-02-19T04:29:07.082Z,2.00
2018-02-19T04:31:36.036Z,2.10
2018-02-19T04:34:06.188Z,2.10
2018-02-19T04:36:34.784Z,2.10
2018-02-19T04:39:04.003Z,2.10
2018-02-19T04:41:32.968Z,2.10
2018-02-19T04:44:02.394Z,2.20
2018-02-19T04:46:33.849Z,2.20
2018-02-19T04:49:03.235Z,2.00
2018-02-19T04:51:31.988Z,2.00
2018-02-19T04:54:00.387Z,2.10
2018-02-19T04:56:29.204Z,2.20
2018-02-19T04:58:57.571Z,2.10
2018-02-19T05:01:25.923Z,2.10
2018-02-19T05:03:54.205Z,2.10
2018-02-19T05:06:22.692Z,2.10
2018-02-19T05:08:51.060Z,2.20
2018-02-19T05:11:19.419Z,2.20
2018-02-19T05:13:47.746Z,2.20
2018-02-19T05:16:16.066Z,2.10
2018-02-19T05:18:44.355Z,1.90
2018-02-19T05:21:13.415Z,2.00
2018-02-19T05:23:41.739Z,2.00
2018-02-19T05:26:10.058Z,2.00
2018-02-19T05:28:40.060Z,1.90
2018-02-19T05:31:08.477Z,1.90
2018-02-19T05:33:36.834Z,1.80
2018-02-19T05:36:05.215Z,1.90
2018-02-19T05:38:34.504Z,1.80
2018-02-19T05:41:03.019Z,1.80
2018-02-19T05:43:31.427Z,1.80
2018-02-19T05:46:00.692Z,1.70
2018-02-19T05:48:29.131Z,1.70
2018-02-19T05:50:57.491Z,1.80
2018-02-19T05:53:27.479Z,1.90
2018-02-19T05:55:55.806Z,1.90
2018-02-19T05:58:24.136Z,1.80
2018-02-19T06:00:53.190Z,1.80
2018-02-19T06:03:21.586Z,1.80
2018-02-19T06:05:49.922Z,1.70
2018-02-19T06:08:18.250Z,1.60
2018-02-19T06:10:46.542Z,1.60
2018-02-19T06:13:14.878Z,1.60
2018-02-19T06:15:43.931Z,1.50
2018-02-19T06:18:12.254Z,1.40
2018-02-19T06:20:40.552Z,1.40
2018-02-19T06:23:08.883Z,1.40
2018-02-19T06:25:37.526Z,1.50
2018-02-19T06:28:06.075Z,1.50
2018-02-19T06:30:34.466Z,1.50
2018-02-19T06:33:02.926Z,1.50
2018-02-19T06:35:32.194Z,1.50
2018-02-19T06:38:00.921Z,1.50
2018-02-19T06:40:29.593Z,1.40
2018-02-19T06:42:57.875Z,1.50
2018-02-19T06:45:26.207Z,1.50
2018-02-19T06:47:54.508Z,1.50
2018-02-19T06:50:23.010Z,1.60
2018-02-19T06:52:51.923Z,1.60
2018-02-19T06:55:20.371Z,1.70
2018-02-19T06:57:48.748Z,1.70
2018-02-19T07:00:17.062Z,1.80
2018-02-19T07:02:45.494Z,1.90
2018-02-19T07:05:13.791Z,2.00
2018-02-19T07:07:42.094Z,2.00
2018-02-19T07:10:10.432Z,2.00
2018-02-19T07:12:39.495Z,2.10
2018-02-19T07:15:07.959Z,2.10
2018-02-19T07:17:36.509Z,2.10
2018-02-19T07:20:05.005Z,2.00
2018-02-19T07:22:33.588Z,2.00
2018-02-19T07:25:02.148Z,2.10
2018-02-19T07:27:30.780Z,2.20
2018-02-19T07:30:00.111Z,2.20
2018-02-19T07:32:28.573Z,2.20
2018-02-19T07:34:57.035Z,2.20
2018-02-19T07:37:25.330Z,2.10
2018-02-19T07:39:54.391Z,2.10
2018-02-19T07:42:22.730Z,2.10
2018-02-19T07:44:52.020Z,2.30
2018-02-19T07:47:21.307Z,2.30
2018-02-19T07:49:50.095Z,2.30
2018-02-19T07:52:18.438Z,2.40
2018-02-19T07:54:46.832Z,2.50
2018-02-19T07:57:15.159Z,2.40
2018-02-19T07:59:43.461Z,2.50
2018-02-19T08:02:11.763Z,2.70
2018-02-19T08:04:40.099Z,2.70
2018-02-19T08:07:08.394Z,2.70
2018-02-19T08:09:36.828Z,2.60
2018-02-19T08:12:06.022Z,2.80
2018-02-19T08:14:34.512Z,2.80
2018-02-19T08:17:03.315Z,2.90
2018-02-19T08:19:31.979Z,3.00
2018-02-19T08:22:00.444Z,3.10
2018-02-19T08:24:30.691Z,3.20
2018-02-19T08:27:00.114Z,3.10
2018-02-19T08:29:28.542Z,3.10
2018-02-19T08:31:57.655Z,3.10
2018-02-19T08:34:25.963Z,3.10
2018-02-19T08:36:54.296Z,3.20
2018-02-19T08:39:23.399Z,3.30
2018-02-19T08:41:52.479Z,3.30
2018-02-19T08:44:20.979Z,3.30
2018-02-19T08:46:49.395Z,3.30
2018-02-19T08:49:18.566Z,3.80
2018-02-19T08:51:46.966Z,3.70
2018-02-19T08:54:16.023Z,4.10
2018-02-19T08:56:44.357Z,4.10
2018-02-19T08:59:12.655Z,4.20
2018-02-19T09:01:40.946Z,4.30
2018-02-19T09:04:09.367Z,4.30
2018-02-19T09:06:37.735Z,4.50
2018-02-19T09:09:06.115Z,4.60
2018-02-19T09:11:34.650Z,4.60
2018-02-19T09:14:03.049Z,4.60
2018-02-19T09:16:31.672Z,4.60
2018-02-19T09:19:01.208Z,4.50
2018-02-19T09:21:30.111Z,4.50
2018-02-19T09:23:58.423Z,4.50
2018-02-19T09:26:27.539Z,4.70
2018-02-19T09:28:55.870Z,4.70
2018-02-19T09:31:24.163Z,4.70
2018-02-19T09:33:52.454Z,4.90
2018-02-19T09:36:20.872Z,4.90
2018-02-19T09:38:49.466Z,4.90
2018-02-19T09:41:17.772Z,5.00
2018-02-19T09:43:46.112Z,5.10
2018-02-19T09:46:15.219Z,5.00
2018-02-19T09:48:43.511Z,5.00
2018-02-19T09:51:11.798Z,5.00
2018-02-19T09:53:40.140Z,5.10
2018-02-19T09:56:08.472Z,5.20
2018-02-19T09:58:36.768Z,5.30
2018-02-19T10:01:05.055Z,5.50
2018-02-19T10:03:34.224Z,5.80
2018-02-19T10:06:02.582Z,5.80
2018-02-19T10:08:31.874Z,5.30
2018-02-19T10:11:00.395Z,5.30
2018-02-19T10:13:28.988Z,5.40
2018-02-19T10:15:57.275Z,5.50
2018-02-19T10:18:25.569Z,5.60
2018-02-19T10:20:54.655Z,5.80
2018-02-19T10:23:22.981Z,5.80
2018-02-19T10:25:51.316Z,5.90
2018-02-19T10:28:19.968Z,6.10
2018-02-19T10:30:48.309Z,6.20
2018-02-19T10:33:16.611Z,6.30
2018-02-19T10:35:45.027Z,6.30
2018-02-19T10:38:13.360Z,6.30
2018-02-19T10:40:42.442Z,5.90
2018-02-19T10:43:10.730Z,5.90
2018-02-19T10:45:39.059Z,5.90
2018-02-19T10:48:07.347Z,5.90
2018-02-19T10:50:36.443Z,5.70
2018-02-19T10:53:04.899Z,5.70
2018-02-19T10:55:33.326Z,5.60
2018-02-19T10:58:01.767Z,5.60
2018-02-19T11:00:35.802Z,5.70
2018-02-19T11:03:04.178Z,5.80
2018-02-19T11:05:32.607Z,5.90
2018-02-19T11:08:01.143Z,5.90
2018-02-19T11:10:29.543Z,6.10
2018-02-19T11:12:58.648Z,6.30
2018-02-19T11:15:27.799Z,6.50
2018-02-19T11:17:56.091Z,6.40
2018-02-19T11:20:24.418Z,6.30
2018-02-19T11:22:53.502Z,6.30
2018-02-19T11:25:21.915Z,6.20
2018-02-19T11:27:50.251Z,6.20
2018-02-19T11:30:19.504Z,6.70
2018-02-19T11:32:47.834Z,6.70
2018-02-19T11:35:16.191Z,6.80
2018-02-19T11:37:45.243Z,7.00
2018-02-19T11:40:13.571Z,7.00
2018-02-19T11:42:41.858Z,7.30
2018-02-19T11:45:10.179Z,7.40
2018-02-19T11:47:38.505Z,7.00
2018-02-19T11:50:06.827Z,6.90
2018-02-19T11:52:35.871Z,7.20
2018-02-19T11:55:04.195Z,7.10
2018-02-19T11:57:32.581Z,7.10
2018-02-19T12:00:01.139Z,7.00
2018-02-19T12:02:29.883Z,7.10
2018-02-19T12:04:58.375Z,7.10
2018-02-19T12:07:26.695Z,7.20
2018-02-19T12:09:55.118Z,7.30
2018-02-19T12:12:23.418Z,7.30
2018-02-19T12:14:51.715Z,7.20
2018-02-19T12:17:20.079Z,7.10
2018-02-19T12:19:49.571Z,6.90
2018-02-19T12:22:17.965Z,6.90
2018-02-19T12:24:46.267Z,7.00
2018-02-19T12:27:14.603Z,6.70
2018-02-19T12:29:42.927Z,6.50
2018-02-19T12:32:12.012Z,6.50
2018-02-19T12:34:40.344Z,6.40
2018-02-19T12:37:09.394Z,6.30
2018-02-19T12:39:37.735Z,6.30
2018-02-19T12:42:06.091Z,6.30
2018-02-19T12:44:34.447Z,6.40
2018-02-19T12:47:03.028Z,6.40
2018-02-19T12:49:31.486Z,6.60
2018-02-19T12:52:00.047Z,6.60
2018-02-19T12:54:28.472Z,6.80
2018-02-19T12:56:56.847Z,6.70
2018-02-19T12:59:25.144Z,6.60
2018-02-19T13:01:53.470Z,6.50
2018-02-19T13:04:21.754Z,6.50
2018-02-19T13:06:50.108Z,6.40
2018-02-19T13:09:19.273Z,6.40
2018-02-19T13:11:47.659Z,6.40
2018-02-19T13:14:15.970Z,6.50
2018-02-19T13:16:44.291Z,6.50
2018-02-19T13:19:12.622Z,6.70
2018-02-19T13:21:40.915Z,6.70
2018-02-19T13:24:09.246Z,6.70
2018-02-19T13:26:38.347Z,6.70
2018-02-19T13:29:06.671Z,6.70
2018-02-19T13:31:36.054Z,6.70
2018-02-19T13:34:04.452Z,6.70
2018-02-19T13:36:32.995Z,6.70
2018-02-19T13:39:01.737Z,6.70
2018-02-19T13:41:30.171Z,6.70
2018-02-19T13:43:58.528Z,6.60
2018-02-19T13:46:26.855Z,6.60
2018-02-19T13:48:55.147Z,6.70
2018-02-19T13:51:23.725Z,6.50
2018-02-19T13:53:52.786Z,6.10
2018-02-19T13:56:21.080Z,6.10
2018-02-19T13:58:49.603Z,6.20
2018-02-19T14:01:17.939Z,6.30
2018-02-19T14:03:46.328Z,6.40
2018-02-19T14:06:14.620Z,6.50
2018-02-19T14:08:42.906Z,6.50
2018-02-19T14:11:11.236Z,6.50
2018-02-19T14:13:39.562Z,6.40
2018-02-19T14:16:07.891Z,6.40
2018-02-19T14:18:36.179Z,6.30
2018-02-19T14:21:05.270Z,6.30
2018-02-19T14:23:33.645Z,6.30
2018-02-19T14:26:03.011Z,6.30
2018-02-19T14:28:31.536Z,6.30
2018-02-19T14:31:01.648Z,6.20
2018-02-19T14:33:30.129Z,6.20
2018-02-19T14:35:58.463Z,6.00
2018-02-19T14:38:27.627Z,6.10
2018-02-19T14:40:55.966Z,6.10
2018-02-19T14:43:24.485Z,6.00
2018-02-19T14:45:52.778Z,5.90
2018-02-19T14:48:21.062Z,5.90
2018-02-19T14:50:49.442Z,6.00
2018-02-19T14:53:18.818Z,5.90
2018-02-19T14:55:47.159Z,5.90
2018-02-19T14:58:16.214Z,5.70
2018-02-19T15:00:44.546Z,5.70
2018-02-19T15:03:12.835Z,5.70
2018-02-19T15:05:41.890Z,5.50
2018-02-19T15:08:11.003Z,5.40
2018-02-19T15:10:39.401Z,5.40
2018-02-19T15:13:07.685Z,5.30
2018-02-19T15:15:36.062Z,5.30
2018-02-19T15:18:04.563Z,5.40
2018-02-19T15:20:33.034Z,5.40
2018-02-19T15:23:01.798Z,5.30
2018-02-19T15:25:30.191Z,5.30
2018-02-19T15:27:58.547Z,5.00
2018-02-19T15:30:27.632Z,5.10
2018-02-19T15:32:55.963Z,5.00
2018-02-19T15:35:24.458Z,5.20
2018-02-19T15:37:52.747Z,5.10
2018-02-19T15:40:21.103Z,5.00
2018-02-19T15:42:49.590Z,4.90
2018-02-19T15:45:18.750Z,4.80
2018-02-19T15:47:47.176Z,4.70
2018-02-19T15:50:15.474Z,4.50
2018-02-19T15:52:43.790Z,4.40
2018-02-19T15:55:12.079Z,4.20
2018-02-19T15:57:40.412Z,4.20
2018-02-19T16:00:08.747Z,4.00
2018-02-19T16:02:37.074Z,4.00
2018-02-19T16:05:05.415Z,3.80
2018-02-19T16:07:33.957Z,3.80
2018-02-19T16:10:03.359Z,3.70
2018-02-19T16:12:32.568Z,3.70
2018-02-19T16:15:01.215Z,3.70
2018-02-19T16:17:29.882Z,3.60
2018-02-19T16:19:59.011Z,3.90
2018-02-19T16:22:27.371Z,3.90
2018-02-19T16:24:55.699Z,3.90
2018-02-19T16:27:23.992Z,3.90
2018-02-19T16:29:52.336Z,3.70
2018-02-19T16:32:20.779Z,3.60
2018-02-19T16:34:49.617Z,3.40
2018-02-19T16:37:17.930Z,3.30
2018-02-19T16:39:46.236Z,3.30
2018-02-19T16:42:14.559Z,3.30
2018-02-19T16:44:42.856Z,3.30
2018-02-19T16:47:11.239Z,3.30
2018-02-19T16:49:39.534Z,3.30
2018-02-19T16:52:07.862Z,3.30
2018-02-19T16:54:36.150Z,3.30
2018-02-19T16:57:04.598Z,3.30
2018-02-19T16:59:33.114Z,3.20
2018-02-19T17:02:01.912Z,3.20
2018-02-19T17:04:31.385Z,3.10
2018-02-19T17:06:59.807Z,3.00
2018-02-19T17:09:28.092Z,2.90
2018-02-19T17:11:56.418Z,2.90
2018-02-19T17:14:24.750Z,2.90
2018-02-19T17:16:53.827Z,2.80
2018-02-19T17:19:22.148Z,2.80
2018-02-19T17:21:50.694Z,2.80
2018-02-19T17:24:19.850Z,3.30
2018-02-19T17:26:48.419Z,3.20
2018-02-19T17:29:16.814Z,3.50
2018-02-19T17:31:45.906Z,3.20
2018-02-19T17:34:14.238Z,3.20
2018-02-19T17:36:43.307Z,2.80
2018-02-19T17:39:11.634Z,2.80
2018-02-19T17:41:39.919Z,2.60
2018-02-19T17:44:08.242Z,2.50
2018-02-19T17:46:36.671Z,2.40
2018-02-19T17:49:05.846Z,2.20
2018-02-19T17:51:34.254Z,2.20
2018-02-19T17:54:03.991Z,2.10
2018-02-19T17:56:32.737Z,2.10
2018-02-19T17:59:01.391Z,2.00
2018-02-19T18:01:30.020Z,2.00
2018-02-19T18:03:58.528Z,1.90
2018-02-19T18:06:27.039Z,1.90
2018-02-19T18:08:56.324Z,2.00
2018-02-19T18:11:24.655Z,1.90
2018-02-19T18:13:52.950Z,1.80
2018-02-19T18:16:21.355Z,1.80
2018-02-19T18:18:49.747Z,1.70
2018-02-19T18:21:18.087Z,2.00
2018-02-19T18:23:47.228Z,2.10
2018-02-19T18:26:16.298Z,2.00
2018-02-19T18:28:44.634Z,2.00
2018-02-19T18:31:13.032Z,1.90
2018-02-19T18:33:41.326Z,2.10
2018-02-19T18:36:09.668Z,2.20
2018-02-19T18:38:38.731Z,2.10
2018-02-19T18:41:07.134Z,2.10
2018-02-19T18:43:35.759Z,1.90
2018-02-19T18:46:04.552Z,1.90
2018-02-19T18:48:33.163Z,1.80
2018-02-19T18:51:01.871Z,1.80
2018-02-19T18:53:31.590Z,1.60
2018-02-19T18:55:59.986Z,1.60
2018-02-19T18:58:28.363Z,1.60
2018-02-19T19:00:56.724Z,1.50
2018-02-19T19:03:25.056Z,1.50
2018-02-19T19:05:53.395Z,1.50
2018-02-19T19:08:33.783Z,1.30
2018-02-19T19:11:02.193Z,1.30
2018-02-19T19:13:30.627Z,1.20
2018-02-19T19:15:59.816Z,1.00
2018-02-19T19:18:28.127Z,1.00
2018-02-19T19:20:56.427Z,1.00
2018-02-19T19:23:24.762Z,1.00
2018-02-19T19:25:53.059Z,1.10
2018-02-19T19:28:21.479Z,1.10
2018-02-19T19:30:50.075Z,1.10
2018-02-19T19:33:18.524Z,1.10
2018-02-19T19:35:47.595Z,1.00
2018-02-19T19:38:15.926Z,1.00
2018-02-19T19:40:44.272Z,1.00
2018-02-19T19:43:12.566Z,1.00
2018-02-19T19:45:40.864Z,1.10
2018-02-19T19:48:09.970Z,1.20
2018-02-19T19:50:39.047Z,1.20
2018-02-19T19:53:07.427Z,1.20
2018-02-19T19:55:35.827Z,1.20
2018-02-19T19:58:04.235Z,1.30
2018-02-19T20:00:32.730Z,1.70
2018-02-19T20:03:01.617Z,2.00
2018-02-19T20:05:30.417Z,1.90
2018-02-19T20:07:59.334Z,1.60
2018-02-19T20:10:27.690Z,1.30
2018-02-19T20:12:56.009Z,1.10
2018-02-19T20:15:24.372Z,1.20
2018-02-19T20:17:53.445Z,1.60
2018-02-19T20:20:21.782Z,1.50
2018-02-19T20:22:50.099Z,1.50
2018-02-19T20:25:19.496Z,1.50
2018-02-19T20:27:48.846Z,1.60
2018-02-19T20:30:17.986Z,1.50
2018-02-19T20:32:47.082Z,1.50
2018-02-19T20:37:50.122Z,1.80
2018-02-19T20:40:18.981Z,1.90
2018-02-19T20:42:48.063Z,1.90
2018-02-19T20:45:16.387Z,1.90
2018-02-19T20:47:44.707Z,1.80
2018-02-19T20:50:13.011Z,1.50
2018-02-19T20:52:41.342Z,1.30
2018-02-19T20:55:09.698Z,1.20
2018-02-19T20:57:38.178Z,1.10
2018-02-19T21:00:06.538Z,1.00
2018-02-19T21:02:35.177Z,1.10
2018-02-19T21:05:03.587Z,1.10
2018-02-19T21:07:32.417Z,1.20
2018-02-19T21:10:01.183Z,1.40
2018-02-19T21:12:29.623Z,1.30
2018-02-19T21:14:57.931Z,1.20
2018-02-19T21:17:27.059Z,1.20
2018-02-19T21:19:55.358Z,1.20
2018-02-19T21:22:23.707Z,1.30
2018-02-19T21:24:52.040Z,1.30
2018-02-19T21:27:20.339Z,1.30
2018-02-19T21:29:48.731Z,1.30
2018-02-19T21:32:17.075Z,1.30
2018-02-19T21:34:45.376Z,1.40
2018-02-19T21:37:13.709Z,1.30
2018-02-19T21:39:42.993Z,1.10
2018-02-19T21:42:11.287Z,1.10
2018-02-19T21:44:39.582Z,1.10
2018-02-19T21:47:07.924Z,1.10
2018-02-19T21:49:36.986Z,1.00
2018-02-19T21:52:05.500Z,1.00
2018-02-19T21:54:34.135Z,1.00
2018-02-19T21:57:02.586Z,0.90
2018-02-19T21:59:31.340Z,0.80
2018-02-19T22:02:00.533Z,0.90
2018-02-19T22:04:28.932Z,0.90
2018-02-19T22:06:57.271Z,0.80
2018-02-19T22:09:25.599Z,1.00
2018-02-19T22:11:54.798Z,0.80
2018-02-19T22:14:23.207Z,0.90
2018-02-19T22:16:51.506Z,0.90
2018-02-19T22:19:19.827Z,0.90
2018-02-19T22:21:48.971Z,0.60
2018-02-19T22:24:18.251Z,0.50
2018-02-19T22:26:46.578Z,0.50
2018-02-19T22:29:14.914Z,0.40
2018-02-19T22:31:43.237Z,0.40
2018-02-19T22:34:11.568Z,0.20
2018-02-19T22:36:39.905Z,0.10
2018-02-19T22:39:08.958Z,0.20
2018-02-19T22:41:37.270Z,0.20
2018-02-19T22:44:05.890Z,0.30
2018-02-19T22:46:34.370Z,0.30
2018-02-19T22:49:02.905Z,0.30
2018-02-19T22:51:31.300Z,0.30
2018-02-19T22:53:59.824Z,0.20
2018-02-19T22:56:28.218Z,0.20
2018-02-19T22:58:56.630Z,0.20
2018-02-19T23:01:25.022Z,0.10
2018-02-19T23:03:53.330Z,0.10
2018-02-19T23:06:21.789Z,0.10
2018-02-19T23:08:50.202Z,0.10
2018-02-19T23:11:18.551Z,0.20
2018-02-19T23:13:47.793Z,0.20
2018-02-19T23:16:16.095Z,0.20
2018-02-19T23:18:44.422Z,0.20
2018-02-19T23:21:12.749Z,0.20
2018-02-19T23:23:41.085Z,0.10
2018-02-19T23:26:09.430Z,0.10
2018-02-19T23:28:38.492Z,0.10
2018-02-19T23:31:06.824Z,0.10
2018-02-19T23:33:35.610Z,0.10
2018-02-19T23:36:04.868Z,0.10
2018-02-19T23:38:33.316Z,0.10
2018-02-19T23:41:01.746Z,0.10
2018-02-19T23:43:30.523Z,0.20
2018-02-19T23:45:59.081Z,0.20
2018-02-19T23:48:27.563Z,0.20
2018-02-19T23:50:55.908Z,0.10
2018-02-19T23:53:25.002Z,0.00
2018-02-19T23:55:53.339Z,0.00
2018-02-19T23:58:22.402Z,-0.10
